Time,TemperatureF,DewpointF,PressureIn,WindDirection,WindDirectionDegrees,WindSpeedMPH,WindSpeedGustMPH,Humidity,HourlyPrecipIn,Conditions,Clouds,dailyrainin,SoftwareType,DateUTC
2013-06-20 00:02:00,69.5,57.6,30.38,North,0,0.0,0.0,66,0.00,,,0.00,WUHU216HW,2013-06-20 05:02:00,
2013-06-20 00:07:00,69.5,58.0,30.38,North,0,0.0,0.0,67,0.00,,,0.00,WUHU216HW,2013-06-20 05:07:00,
2013-06-20 00:12:00,69.5,58.0,30.38,North,0,0.0,0.0,67,0.00,,,0.00,WUHU216HW,2013-06-20 05:12:00,
2013-06-20 00:17:00,69.3,57.9,30.38,North,0,0.0,0.0,67,0.00,,,0.00,WUHU216HW,2013-06-20 05:17:00,
2013-06-20 00:22:00,69.3,58.2,30.38,North,0,0.0,0.0,68,0.00,,,0.00,WUHU216HW,2013-06-20 05:22:00,
2013-06-20 00:27:00,69.1,58.1,30.38,North,0,0.0,0.0,68,0.00,,,0.00,WUHU216HW,2013-06-20 05:27:00,
2013-06-20 00:32:00,68.9,58.0,30.38,North,0,0.0,0.0,68,0.00,,,0.00,WUHU216HW,2013-06-20 05:32:00,
2013-06-20 00:35:00,68.9,58.0,30.38,North,0,0.0,0.0,68,0.00,,,0.00,WUHU216HW,2013-06-20 05:35:00,
2013-06-20 00:41:00,68.8,58.1,30.39,North,0,0.0,0.0,69,0.00,,,0.00,WUHU216HW,2013-06-20 05:41:00,
2013-06-20 00:46:00,68.6,58.1,30.39,North,0,0.0,0.0,69,0.00,,,0.00,WUHU216HW,2013-06-20 05:46:00,
2013-06-20 00:51:00,68.4,57.9,30.39,North,0,0.0,0.0,69,0.00,,,0.00,WUHU216HW,2013-06-20 05:51:00,
2013-06-20 00:56:00,68.2,58.2,30.39,North,0,0.0,0.0,70,0.00,,,0.00,WUHU216HW,2013-06-20 05:56:00,
2013-06-20 01:03:00,68.0,58.0,30.39,North,0,0.0,0.0,70,0.00,,,0.00,WUHU216HW,2013-06-20 06:03:00,
2013-06-20 01:08:00,67.7,57.6,30.39,North,0,0.0,0.0,70,0.00,,,0.00,WUHU216HW,2013-06-20 06:08:00,
2013-06-20 01:21:00,67.3,57.6,30.39,North,0,0.0,0.0,71,0.00,,,0.00,WUHU216HW,2013-06-20 06:21:00,
2013-06-20 01:26:00,67.3,58.0,30.39,North,0,0.0,0.0,72,0.00,,,0.00,WUHU216HW,2013-06-20 06:26:00,
2013-06-20 01:31:00,67.3,57.6,30.39,North,0,0.0,0.0,71,0.00,,,0.00,WUHU216HW,2013-06-20 06:31:00,
2013-06-20 01:36:00,67.3,57.2,30.39,North,0,0.0,0.0,70,0.00,,,0.00,WUHU216HW,2013-06-20 06:36:00,
2013-06-20 01:41:00,67.1,57.4,30.39,North,0,0.0,0.0,71,0.00,,,0.00,WUHU216HW,2013-06-20 06:41:00,
2013-06-20 01:46:00,66.8,57.4,30.39,North,0,0.0,0.0,72,0.00,,,0.00,WUHU216HW,2013-06-20 06:46:00,
2013-06-20 01:51:00,66.4,56.7,30.39,North,0,0.0,0.0,71,0.00,,,0.00,WUHU216HW,2013-06-20 06:51:00,
2013-06-20 01:56:00,66.1,56.8,30.39,North,0,0.0,0.0,72,0.00,,,0.00,WUHU216HW,2013-06-20 06:56:00,
2013-06-20 02:01:00,65.7,56.4,30.39,North,0,0.0,0.0,72,0.00,,,0.00,WUHU216HW,2013-06-20 07:01:00,
2013-06-20 02:05:00,65.5,56.3,30.39,North,0,0.0,0.0,72,0.00,,,0.00,WUHU216HW,2013-06-20 07:05:00,
2013-06-20 02:06:00,65.5,56.3,30.39,North,0,0.0,0.0,72,0.00,,,0.00,WUHU216HW,2013-06-20 07:06:00,
2013-06-20 03:00:00,63.7,55.6,30.40,North,0,0.0,0.0,75,0.00,,,0.00,WUHU216HW,2013-06-20 08:00:00,
2013-06-20 04:00:00,61.2,54.4,30.40,North,0,0.0,0.0,78,0.00,,,0.00,WUHU216HW,2013-06-20 09:00:00,
2013-06-20 04:05:00,61.2,54.4,30.40,North,0,0.0,0.0,78,0.00,,,0.00,WUHU216HW,2013-06-20 09:05:00,
2013-06-20 05:00:00,59.8,53.6,30.40,North,0,0.0,0.0,80,0.00,,,0.00,WUHU216HW,2013-06-20 10:00:00,
2013-06-20 05:05:00,59.8,53.6,30.40,North,0,0.0,0.0,80,0.00,,,0.00,WUHU216HW,2013-06-20 10:05:00,
2013-06-20 06:00:00,59.6,54.7,30.40,North,0,0.0,0.0,84,0.00,,,0.00,WUHU216HW,2013-06-20 11:00:00,
2013-06-20 06:05:00,59.6,54.7,30.40,North,0,0.0,0.0,84,0.00,,,0.00,WUHU216HW,2013-06-20 11:05:00,
2013-06-20 06:59:00,73.4,61.4,30.41,North,0,0.0,0.0,66,0.00,,,0.00,WUHU216HW,2013-06-20 11:59:00,
2013-06-20 07:04:00,74.9,61.5,30.41,North,0,0.0,0.0,63,0.00,,,0.00,WUHU216HW,2013-06-20 12:04:00,
2013-06-20 07:09:00,76.1,60.8,30.41,North,0,0.0,0.0,59,0.00,,,0.00,WUHU216HW,2013-06-20 12:09:00,
2013-06-20 07:14:00,76.7,61.3,30.42,North,0,0.0,0.0,59,0.00,,,0.00,WUHU216HW,2013-06-20 12:14:00,
2013-06-20 07:19:00,77.8,61.8,30.42,North,0,0.0,0.0,58,0.00,,,0.00,WUHU216HW,2013-06-20 12:19:00,
2013-06-20 07:24:00,78.8,61.3,30.42,North,0,0.0,0.0,55,0.00,,,0.00,WUHU216HW,2013-06-20 12:24:00,
2013-06-20 07:29:00,79.7,62.1,30.42,North,0,0.0,0.0,55,0.00,,,0.00,WUHU216HW,2013-06-20 12:29:00,
2013-06-20 07:34:00,81.2,63.4,30.42,North,0,0.0,0.0,55,0.00,,,0.00,WUHU216HW,2013-06-20 12:34:00,
2013-06-20 07:39:00,82.4,62.5,30.42,North,0,0.0,0.0,51,0.00,,,0.00,WUHU216HW,2013-06-20 12:39:00,
2013-06-20 07:44:00,82.4,61.9,30.42,North,0,0.0,0.0,50,0.00,,,0.00,WUHU216HW,2013-06-20 12:44:00,
2013-06-20 07:49:00,83.0,62.5,30.41,North,0,0.0,0.0,50,0.00,,,0.00,WUHU216HW,2013-06-20 12:49:00,
2013-06-20 07:54:00,83.3,61.6,30.42,North,0,0.0,0.0,48,0.00,,,0.00,WUHU216HW,2013-06-20 12:54:00,
2013-06-20 07:59:00,84.1,62.9,30.42,North,0,0.0,0.0,49,0.00,,,0.00,WUHU216HW,2013-06-20 12:59:00,
2013-06-20 08:04:00,85.1,62.6,30.41,North,0,0.0,0.0,47,0.00,,,0.00,WUHU216HW,2013-06-20 13:04:00,
2013-06-20 08:10:00,85.9,63.9,30.41,North,0,0.0,0.0,48,0.00,,,0.00,WUHU216HW,2013-06-20 13:10:00,
2013-06-20 08:15:00,86.8,64.1,30.41,North,0,0.0,0.0,47,0.00,,,0.00,WUHU216HW,2013-06-20 13:15:00,
2013-06-20 08:20:00,87.1,63.8,30.42,North,0,0.0,0.0,46,0.00,,,0.00,WUHU216HW,2013-06-20 13:20:00,
2013-06-20 08:25:00,87.8,63.8,30.42,North,0,0.0,0.0,45,0.00,,,0.00,WUHU216HW,2013-06-20 13:25:00,
2013-06-20 08:30:00,88.2,64.7,30.42,North,0,0.0,0.0,46,0.00,,,0.00,WUHU216HW,2013-06-20 13:30:00,
2013-06-20 08:35:00,88.6,65.1,30.42,North,0,0.0,0.0,46,0.00,,,0.00,WUHU216HW,2013-06-20 13:35:00,
2013-06-20 08:40:00,89.6,65.3,30.42,North,0,0.0,0.0,45,0.00,,,0.00,WUHU216HW,2013-06-20 13:40:00,
2013-06-20 08:45:00,90.9,66.5,30.42,North,0,0.0,0.0,45,0.00,,,0.00,WUHU216HW,2013-06-20 13:45:00,
2013-06-20 08:50:00,92.2,65.7,30.42,North,0,0.0,0.0,42,0.00,,,0.00,WUHU216HW,2013-06-20 13:50:00,
2013-06-20 08:55:00,92.7,66.2,30.42,North,0,0.0,0.0,42,0.00,,,0.00,WUHU216HW,2013-06-20 13:55:00,
2013-06-20 08:59:00,91.8,65.3,30.43,North,0,0.0,0.0,42,0.00,,,0.00,WUHU216HW,2013-06-20 13:59:00,
2013-06-20 09:05:00,91.8,66.0,30.42,North,0,0.0,0.0,43,0.00,,,0.00,WUHU216HW,2013-06-20 14:05:00,
2013-06-20 09:10:00,92.3,66.5,30.42,North,0,0.0,0.0,43,0.00,,,0.00,WUHU216HW,2013-06-20 14:10:00,
2013-06-20 09:15:00,91.4,64.4,30.42,North,0,0.0,0.0,41,0.00,,,0.00,WUHU216HW,2013-06-20 14:15:00,
2013-06-20 09:19:00,90.4,64.7,30.42,North,0,0.0,0.0,43,0.00,,,0.00,WUHU216HW,2013-06-20 14:19:00,
2013-06-20 09:25:00,90.4,65.3,30.42,North,0,0.0,0.0,44,0.00,,,0.00,WUHU216HW,2013-06-20 14:25:00,
2013-06-20 09:30:00,90.4,64.1,30.42,North,0,0.0,0.0,42,0.00,,,0.00,WUHU216HW,2013-06-20 14:30:00,
2013-06-20 09:35:00,90.2,65.2,30.42,North,0,0.0,0.0,44,0.00,,,0.00,WUHU216HW,2013-06-20 14:35:00,
2013-06-20 09:40:00,90.2,65.2,30.42,North,0,0.0,0.0,44,0.00,,,0.00,WUHU216HW,2013-06-20 14:40:00,
2013-06-20 09:45:00,90.4,65.3,30.42,North,0,0.0,0.0,44,0.00,,,0.00,WUHU216HW,2013-06-20 14:45:00,
2013-06-20 09:50:00,90.5,64.9,30.42,North,0,0.0,0.0,43,0.00,,,0.00,WUHU216HW,2013-06-20 14:50:00,
2013-06-20 09:55:00,91.1,65.3,30.42,North,0,0.0,0.0,43,0.00,,,0.00,WUHU216HW,2013-06-20 14:55:00,
2013-06-20 10:00:00,92.0,66.2,30.42,North,0,0.0,0.0,43,0.00,,,0.00,WUHU216HW,2013-06-20 15:00:00,
2013-06-20 10:05:00,91.6,65.2,30.42,North,0,0.0,0.0,42,0.00,,,0.00,WUHU216HW,2013-06-20 15:05:00,
2013-06-20 10:10:00,90.4,64.1,30.42,North,0,0.0,0.0,42,0.00,,,0.00,WUHU216HW,2013-06-20 15:10:00,
2013-06-20 10:15:00,90.0,63.7,30.42,North,0,0.0,0.0,42,0.00,,,0.00,WUHU216HW,2013-06-20 15:15:00,
2013-06-20 10:20:00,90.0,64.4,30.42,North,0,0.0,0.0,43,0.00,,,0.00,WUHU216HW,2013-06-20 15:20:00,
2013-06-20 10:25:00,89.3,64.4,30.42,North,0,0.0,0.0,44,0.00,,,0.00,WUHU216HW,2013-06-20 15:25:00,
2013-06-20 10:30:00,89.6,64.7,30.42,North,0,0.0,0.0,44,0.00,,,0.00,WUHU216HW,2013-06-20 15:30:00,
2013-06-20 10:35:00,89.8,64.2,30.42,North,0,0.0,0.0,43,0.00,,,0.00,WUHU216HW,2013-06-20 15:35:00,
2013-06-20 10:40:00,90.0,65.0,30.42,North,0,0.0,0.0,44,0.00,,,0.00,WUHU216HW,2013-06-20 15:40:00,
2013-06-20 10:45:00,90.5,66.2,30.42,North,0,0.0,0.0,45,0.00,,,0.00,WUHU216HW,2013-06-20 15:45:00,
2013-06-20 10:50:00,90.9,65.2,30.42,North,0,0.0,0.0,43,0.00,,,0.00,WUHU216HW,2013-06-20 15:50:00,
2013-06-20 10:54:00,90.7,65.0,30.42,North,0,0.0,0.0,43,0.00,,,0.00,WUHU216HW,2013-06-20 15:54:00,
2013-06-20 11:00:00,91.4,67.0,30.42,North,0,0.0,0.0,45,0.00,,,0.00,WUHU216HW,2013-06-20 16:00:00,
2013-06-20 11:04:00,92.3,67.2,30.41,North,0,0.0,0.0,44,0.00,,,0.00,WUHU216HW,2013-06-20 16:04:00,
2013-06-20 11:10:00,92.2,66.3,30.41,North,0,0.0,0.0,43,0.00,,,0.00,WUHU216HW,2013-06-20 16:10:00,
2013-06-20 11:14:00,92.0,64.9,30.41,North,0,0.0,0.0,41,0.00,,,0.00,WUHU216HW,2013-06-20 16:14:00,
2013-06-20 11:20:00,91.8,65.3,30.41,North,0,0.0,0.0,42,0.00,,,0.00,WUHU216HW,2013-06-20 16:20:00,
2013-06-20 11:24:00,92.7,65.5,30.41,North,0,0.0,0.0,41,0.00,,,0.00,WUHU216HW,2013-06-20 16:24:00,
2013-06-20 11:29:00,93.1,65.2,30.41,North,0,0.0,0.0,40,0.00,,,0.00,WUHU216HW,2013-06-20 16:29:00,
2013-06-20 11:34:00,93.2,66.0,30.41,North,0,0.0,0.0,41,0.00,,,0.00,WUHU216HW,2013-06-20 16:34:00,
2013-06-20 11:39:00,93.4,66.2,30.41,North,0,0.0,0.0,41,0.00,,,0.00,WUHU216HW,2013-06-20 16:39:00,
2013-06-20 11:44:00,93.1,65.8,30.41,North,0,0.0,0.0,41,0.00,,,0.00,WUHU216HW,2013-06-20 16:44:00,
2013-06-20 11:49:00,92.3,65.2,30.41,North,0,0.0,0.0,41,0.00,,,0.00,WUHU216HW,2013-06-20 16:49:00,
2013-06-20 11:54:00,92.2,65.0,30.41,North,0,0.0,0.0,41,0.00,,,0.00,WUHU216HW,2013-06-20 16:54:00,
2013-06-20 11:59:00,92.2,64.4,30.40,North,0,0.0,0.0,40,0.00,,,0.00,WUHU216HW,2013-06-20 16:59:00,
2013-06-20 12:04:00,92.5,65.3,30.40,North,0,0.0,0.0,41,0.00,,,0.00,WUHU216HW,2013-06-20 17:04:00,
2013-06-20 12:09:00,92.0,63.5,30.40,North,0,0.0,0.0,39,0.00,,,0.00,WUHU216HW,2013-06-20 17:09:00,
2013-06-20 12:14:00,91.1,64.7,30.40,North,0,0.0,0.0,42,0.00,,,0.00,WUHU216HW,2013-06-20 17:14:00,
2013-06-20 12:19:00,91.6,65.2,30.40,North,0,0.0,0.0,42,0.00,,,0.00,WUHU216HW,2013-06-20 17:19:00,
2013-06-20 12:24:00,92.0,63.5,30.40,North,0,0.0,0.0,39,0.00,,,0.00,WUHU216HW,2013-06-20 17:24:00,
2013-06-20 12:29:00,91.1,64.7,30.40,North,0,0.0,0.0,42,0.00,,,0.00,WUHU216HW,2013-06-20 17:29:00,
2013-06-20 12:34:00,90.7,64.4,30.39,North,0,0.0,0.0,42,0.00,,,0.00,WUHU216HW,2013-06-20 17:34:00,
2013-06-20 12:39:00,90.5,63.5,30.40,North,0,0.0,0.0,41,0.00,,,0.00,WUHU216HW,2013-06-20 17:39:00,
2013-06-20 12:44:00,90.5,64.9,30.39,North,0,0.0,0.0,43,0.00,,,0.00,WUHU216HW,2013-06-20 17:44:00,
2013-06-20 12:49:00,90.7,65.0,30.39,North,0,0.0,0.0,43,0.00,,,0.00,WUHU216HW,2013-06-20 17:49:00,
2013-06-20 12:54:00,90.7,64.4,30.39,North,0,0.0,0.0,42,0.00,,,0.00,WUHU216HW,2013-06-20 17:54:00,
2013-06-20 12:59:00,90.7,64.4,30.39,North,0,0.0,0.0,42,0.00,,,0.00,WUHU216HW,2013-06-20 17:59:00,
2013-06-20 13:04:00,89.6,63.4,30.39,North,0,0.0,0.0,42,0.00,,,0.00,WUHU216HW,2013-06-20 18:04:00,
2013-06-20 13:09:00,89.3,63.1,30.39,North,0,0.0,0.0,42,0.00,,,0.00,WUHU216HW,2013-06-20 18:09:00,
2013-06-20 13:14:00,89.3,62.5,30.38,North,0,0.0,0.0,41,0.00,,,0.00,WUHU216HW,2013-06-20 18:14:00,
2013-06-20 13:19:00,89.1,63.6,30.39,North,0,0.0,0.0,43,0.00,,,0.00,WUHU216HW,2013-06-20 18:19:00,
2013-06-20 13:24:00,89.3,63.7,30.38,North,0,0.0,0.0,43,0.00,,,0.00,WUHU216HW,2013-06-20 18:24:00,
2013-06-20 13:29:00,89.5,61.9,30.38,North,0,0.0,0.0,40,0.00,,,0.00,WUHU216HW,2013-06-20 18:29:00,
2013-06-20 13:34:00,88.9,62.2,30.38,North,0,0.0,0.0,41,0.00,,,0.00,WUHU216HW,2013-06-20 18:34:00,
2013-06-20 13:39:00,88.7,62.6,30.38,North,0,0.0,0.0,42,0.00,,,0.00,WUHU216HW,2013-06-20 18:39:00,
2013-06-20 13:44:00,88.7,62.6,30.38,North,0,0.0,0.0,42,0.00,,,0.00,WUHU216HW,2013-06-20 18:44:00,
2013-06-20 13:49:00,89.1,63.6,30.38,North,0,0.0,0.0,43,0.00,,,0.00,WUHU216HW,2013-06-20 18:49:00,
2013-06-20 13:54:00,89.1,62.9,30.38,North,0,0.0,0.0,42,0.00,,,0.00,WUHU216HW,2013-06-20 18:54:00,
2013-06-20 13:59:00,89.1,63.6,30.38,North,0,0.0,0.0,43,0.00,,,0.00,WUHU216HW,2013-06-20 18:59:00,
2013-06-20 14:04:00,89.1,62.9,30.38,North,0,0.0,0.0,42,0.00,,,0.00,WUHU216HW,2013-06-20 19:04:00,
2013-06-20 14:09:00,88.6,63.2,30.38,North,0,0.0,0.0,43,0.00,,,0.00,WUHU216HW,2013-06-20 19:09:00,
2013-06-20 14:14:00,88.4,63.0,30.38,North,0,0.0,0.0,43,0.00,,,0.00,WUHU216HW,2013-06-20 19:14:00,
2013-06-20 14:19:00,88.4,63.0,30.37,North,0,0.0,0.0,43,0.00,,,0.00,WUHU216HW,2013-06-20 19:19:00,
2013-06-20 14:24:00,88.2,62.8,30.38,North,0,0.0,0.0,43,0.00,,,0.00,WUHU216HW,2013-06-20 19:24:00,
2013-06-20 14:29:00,88.2,62.2,30.37,North,0,0.0,0.0,42,0.00,,,0.00,WUHU216HW,2013-06-20 19:29:00,
2013-06-20 14:34:00,88.4,63.0,30.37,North,0,0.0,0.0,43,0.00,,,0.00,WUHU216HW,2013-06-20 19:34:00,
2013-06-20 14:39:00,88.6,63.2,30.37,North,0,0.0,0.0,43,0.00,,,0.00,WUHU216HW,2013-06-20 19:39:00,
2013-06-20 14:44:00,88.4,63.0,30.37,North,0,0.0,0.0,43,0.00,,,0.00,WUHU216HW,2013-06-20 19:44:00,
2013-06-20 14:49:00,88.4,63.0,30.37,North,0,0.0,0.0,43,0.00,,,0.00,WUHU216HW,2013-06-20 19:49:00,
2013-06-20 14:54:00,88.6,63.2,30.37,North,0,0.0,0.0,43,0.00,,,0.00,WUHU216HW,2013-06-20 19:54:00,
2013-06-20 14:59:00,88.4,62.4,30.36,North,0,0.0,0.0,42,0.00,,,0.00,WUHU216HW,2013-06-20 19:59:00,
2013-06-20 15:04:00,88.2,62.2,30.36,North,0,0.0,0.0,42,0.00,,,0.00,WUHU216HW,2013-06-20 20:04:00,
2013-06-20 15:09:00,88.0,62.7,30.36,North,0,0.0,0.0,43,0.00,,,0.00,WUHU216HW,2013-06-20 20:09:00,
2013-06-20 15:14:00,88.0,62.7,30.36,North,0,0.0,0.0,43,0.00,,,0.00,WUHU216HW,2013-06-20 20:14:00,
2013-06-20 15:19:00,88.4,63.0,30.36,North,0,0.0,0.0,43,0.00,,,0.00,WUHU216HW,2013-06-20 20:19:00,
2013-06-20 15:24:00,88.4,63.0,30.36,North,0,0.0,0.0,43,0.00,,,0.00,WUHU216HW,2013-06-20 20:24:00,
2013-06-20 15:29:00,88.4,63.0,30.36,North,0,0.0,0.0,43,0.00,,,0.00,WUHU216HW,2013-06-20 20:29:00,
2013-06-20 15:34:00,88.2,62.8,30.35,North,0,0.0,0.0,43,0.00,,,0.00,WUHU216HW,2013-06-20 20:34:00,
2013-06-20 15:39:00,88.2,62.8,30.35,North,0,0.0,0.0,43,0.00,,,0.00,WUHU216HW,2013-06-20 20:39:00,
2013-06-20 15:44:00,88.2,62.8,30.35,North,0,0.0,0.0,43,0.00,,,0.00,WUHU216HW,2013-06-20 20:44:00,
2013-06-20 15:49:00,88.2,61.6,30.35,North,0,0.0,0.0,41,0.00,,,0.00,WUHU216HW,2013-06-20 20:49:00,
2013-06-20 15:54:00,88.0,62.1,30.35,North,0,0.0,0.0,42,0.00,,,0.00,WUHU216HW,2013-06-20 20:54:00,
2013-06-20 15:59:00,88.0,62.1,30.35,North,0,0.0,0.0,42,0.00,,,0.00,WUHU216HW,2013-06-20 20:59:00,
2013-06-20 16:04:00,87.8,61.9,30.35,North,0,0.0,0.0,42,0.00,,,0.00,WUHU216HW,2013-06-20 21:04:00,
2013-06-20 16:09:00,88.0,62.1,30.35,North,0,0.0,0.0,42,0.00,,,0.00,WUHU216HW,2013-06-20 21:09:00,
2013-06-20 16:14:00,88.0,62.1,30.35,North,0,0.0,0.0,42,0.00,,,0.00,WUHU216HW,2013-06-20 21:14:00,
2013-06-20 16:19:00,88.0,62.1,30.35,North,0,0.0,0.0,42,0.00,,,0.00,WUHU216HW,2013-06-20 21:19:00,
2013-06-20 16:24:00,88.0,62.1,30.35,North,0,0.0,0.0,42,0.00,,,0.00,WUHU216HW,2013-06-20 21:24:00,
2013-06-20 16:29:00,88.0,62.1,30.35,North,0,0.0,0.0,42,0.00,,,0.00,WUHU216HW,2013-06-20 21:29:00,
2013-06-20 16:34:00,87.8,61.9,30.35,North,0,0.0,0.0,42,0.00,,,0.00,WUHU216HW,2013-06-20 21:34:00,
2013-06-20 16:39:00,87.8,62.6,30.34,North,0,0.0,0.0,43,0.00,,,0.00,WUHU216HW,2013-06-20 21:39:00,
2013-06-20 16:44:00,87.8,61.9,30.35,North,0,0.0,0.0,42,0.00,,,0.00,WUHU216HW,2013-06-20 21:44:00,
2013-06-20 16:49:00,87.8,61.9,30.35,North,0,0.0,0.0,42,0.00,,,0.00,WUHU216HW,2013-06-20 21:49:00,
2013-06-20 16:54:00,87.8,61.3,30.35,North,0,0.0,0.0,41,0.00,,,0.00,WUHU216HW,2013-06-20 21:54:00,
2013-06-20 16:59:00,87.8,61.3,30.34,North,0,0.0,0.0,41,0.00,,,0.00,WUHU216HW,2013-06-20 21:59:00,
2013-06-20 17:04:00,87.8,61.9,30.34,North,0,0.0,0.0,42,0.00,,,0.00,WUHU216HW,2013-06-20 22:04:00,
2013-06-20 17:09:00,87.7,61.7,30.34,North,0,0.0,0.0,42,0.00,,,0.00,WUHU216HW,2013-06-20 22:09:00,
2013-06-20 17:14:00,87.7,61.7,30.34,North,0,0.0,0.0,42,0.00,,,0.00,WUHU216HW,2013-06-20 22:14:00,
2013-06-20 17:19:00,87.7,61.1,30.34,North,0,0.0,0.0,41,0.00,,,0.00,WUHU216HW,2013-06-20 22:19:00,
2013-06-20 17:24:00,87.7,61.1,30.34,North,0,0.0,0.0,41,0.00,,,0.00,WUHU216HW,2013-06-20 22:24:00,
2013-06-20 17:29:00,87.7,60.5,30.34,North,0,0.0,0.0,40,0.00,,,0.00,WUHU216HW,2013-06-20 22:29:00,
2013-06-20 17:34:00,87.5,60.3,30.34,North,0,0.0,0.0,40,0.00,,,0.00,WUHU216HW,2013-06-20 22:34:00,
2013-06-20 17:39:00,87.5,60.3,30.34,North,0,0.0,0.0,40,0.00,,,0.00,WUHU216HW,2013-06-20 22:39:00,
2013-06-20 17:44:00,87.3,60.2,30.34,North,0,0.0,0.0,40,0.00,,,0.00,WUHU216HW,2013-06-20 22:44:00,
2013-06-20 17:49:00,87.3,60.2,30.34,North,0,0.0,0.0,40,0.00,,,0.00,WUHU216HW,2013-06-20 22:49:00,
2013-06-20 17:54:00,87.3,60.2,30.34,North,0,0.0,0.0,40,0.00,,,0.00,WUHU216HW,2013-06-20 22:54:00,
2013-06-20 17:59:00,87.1,60.0,30.34,North,0,0.0,0.0,40,0.00,,,0.00,WUHU216HW,2013-06-20 22:59:00,
2013-06-20 18:04:00,87.1,60.7,30.33,North,0,0.0,0.0,41,0.00,,,0.00,WUHU216HW,2013-06-20 23:04:00,
2013-06-20 18:09:00,86.9,60.5,30.33,North,0,0.0,0.0,41,0.00,,,0.00,WUHU216HW,2013-06-20 23:09:00,
2013-06-20 18:14:00,86.9,61.1,30.33,North,0,0.0,0.0,42,0.00,,,0.00,WUHU216HW,2013-06-20 23:14:00,
2013-06-20 18:19:00,86.8,60.3,30.33,North,0,0.0,0.0,41,0.00,,,0.00,WUHU216HW,2013-06-20 23:19:00,
2013-06-20 18:24:00,86.6,60.1,30.33,North,0,0.0,0.0,41,0.00,,,0.00,WUHU216HW,2013-06-20 23:24:00,
2013-06-20 18:29:00,86.4,60.7,30.32,North,0,0.0,0.0,42,0.00,,,0.00,WUHU216HW,2013-06-20 23:29:00,
2013-06-20 18:34:00,86.4,61.3,30.32,North,0,0.0,0.0,43,0.00,,,0.00,WUHU216HW,2013-06-20 23:34:00,
2013-06-20 18:39:00,86.2,61.1,30.32,North,0,0.0,0.0,43,0.00,,,0.00,WUHU216HW,2013-06-20 23:39:00,
2013-06-20 18:44:00,86.0,60.9,30.32,North,0,0.0,0.0,43,0.00,,,0.00,WUHU216HW,2013-06-20 23:44:00,
2013-06-20 18:49:00,86.0,61.6,30.32,North,0,0.0,0.0,44,0.00,,,0.00,WUHU216HW,2013-06-20 23:49:00,
2013-06-20 18:54:00,85.7,60.6,30.32,North,0,0.0,0.0,43,0.00,,,0.00,WUHU216HW,2013-06-20 23:54:00,
2013-06-20 18:59:00,85.5,60.5,30.32,North,0,0.0,0.0,43,0.00,,,0.00,WUHU216HW,2013-06-20 23:59:00,
2013-06-20 19:04:00,85.3,60.9,30.32,North,0,0.0,0.0,44,0.00,,,0.00,WUHU216HW,2013-06-21 00:04:00,
2013-06-20 19:09:00,85.0,60.6,30.31,North,0,0.0,0.0,44,0.00,,,0.00,WUHU216HW,2013-06-21 00:09:00,
2013-06-20 19:14:00,84.8,61.0,30.31,North,0,0.0,0.0,45,0.00,,,0.00,WUHU216HW,2013-06-21 00:14:00,
2013-06-20 19:19:00,84.8,61.0,30.31,North,0,0.0,0.0,45,0.00,,,0.00,WUHU216HW,2013-06-21 00:19:00,
2013-06-20 19:24:00,84.6,60.9,30.32,North,0,0.0,0.0,45,0.00,,,0.00,WUHU216HW,2013-06-21 00:24:00,
2013-06-20 19:29:00,84.4,61.4,30.32,North,0,0.0,0.0,46,0.00,,,0.00,WUHU216HW,2013-06-21 00:29:00,
2013-06-20 19:34:00,84.4,62.0,30.32,North,0,0.0,0.0,47,0.00,,,0.00,WUHU216HW,2013-06-21 00:34:00,
2013-06-20 19:39:00,84.1,61.7,30.32,North,0,0.0,0.0,47,0.00,,,0.00,WUHU216HW,2013-06-21 00:39:00,
2013-06-20 19:44:00,83.9,62.1,30.32,North,0,0.0,0.0,48,0.00,,,0.00,WUHU216HW,2013-06-21 00:44:00,
2013-06-20 19:49:00,83.9,62.1,30.31,North,0,0.0,0.0,48,0.00,,,0.00,WUHU216HW,2013-06-21 00:49:00,
2013-06-20 19:54:00,83.5,61.7,30.31,North,0,0.0,0.0,48,0.00,,,0.00,WUHU216HW,2013-06-21 00:54:00,
2013-06-20 19:59:00,83.5,61.7,30.32,North,0,0.0,0.0,48,0.00,,,0.00,WUHU216HW,2013-06-21 00:59:00,
2013-06-20 20:04:00,83.2,62.0,30.32,North,0,0.0,0.0,49,0.00,,,0.00,WUHU216HW,2013-06-21 01:04:00,
2013-06-20 20:09:00,83.0,61.8,30.32,North,0,0.0,0.0,49,0.00,,,0.00,WUHU216HW,2013-06-21 01:09:00,
2013-06-20 20:14:00,82.8,61.7,30.32,North,0,0.0,0.0,49,0.00,,,0.00,WUHU216HW,2013-06-21 01:14:00,
2013-06-20 20:19:00,82.4,61.9,30.33,North,0,0.0,0.0,50,0.00,,,0.00,WUHU216HW,2013-06-21 01:19:00,
2013-06-20 20:24:00,82.3,61.7,30.33,North,0,0.0,0.0,50,0.00,,,0.00,WUHU216HW,2013-06-21 01:24:00,
2013-06-20 20:29:00,81.9,61.9,30.32,North,0,0.0,0.0,51,0.00,,,0.00,WUHU216HW,2013-06-21 01:29:00,
2013-06-20 20:34:00,81.5,61.7,30.32,North,0,0.0,0.0,51,0.00,,,0.00,WUHU216HW,2013-06-21 01:34:00,
2013-06-20 20:39:00,81.2,61.8,30.32,North,0,0.0,0.0,52,0.00,,,0.00,WUHU216HW,2013-06-21 01:39:00,
2013-06-20 20:44:00,81.0,62.2,30.32,North,0,0.0,0.0,53,0.00,,,0.00,WUHU216HW,2013-06-21 01:44:00,
2013-06-20 20:49:00,80.8,62.0,30.32,North,0,0.0,0.0,53,0.00,,,0.00,WUHU216HW,2013-06-21 01:49:00,
2013-06-20 20:54:00,80.6,61.8,30.32,North,0,0.0,0.0,53,0.00,,,0.00,WUHU216HW,2013-06-21 01:54:00,
2013-06-20 20:59:00,80.3,61.6,30.33,North,0,0.0,0.0,53,0.00,,,0.00,WUHU216HW,2013-06-21 01:59:00,
2013-06-20 21:04:00,80.1,61.9,30.33,North,0,0.0,0.0,54,0.00,,,0.00,WUHU216HW,2013-06-21 02:04:00,
2013-06-20 21:09:00,79.9,61.7,30.33,North,0,0.0,0.0,54,0.00,,,0.00,WUHU216HW,2013-06-21 02:09:00,
2013-06-20 21:14:00,79.6,61.9,30.33,North,0,0.0,0.0,55,0.00,,,0.00,WUHU216HW,2013-06-21 02:14:00,
2013-06-20 21:19:00,79.6,61.9,30.33,North,0,0.0,0.0,55,0.00,,,0.00,WUHU216HW,2013-06-21 02:19:00,
2013-06-20 21:24:00,79.6,61.9,30.33,North,0,0.0,0.0,55,0.00,,,0.00,WUHU216HW,2013-06-21 02:24:00,
2013-06-20 21:29:00,79.4,61.7,30.33,North,0,0.0,0.0,55,0.00,,,0.00,WUHU216HW,2013-06-21 02:29:00,
2013-06-20 21:34:00,79.2,62.1,30.33,North,0,0.0,0.0,56,0.00,,,0.00,WUHU216HW,2013-06-21 02:34:00,
2013-06-20 21:39:00,79.2,62.1,30.34,North,0,0.0,0.0,56,0.00,,,0.00,WUHU216HW,2013-06-21 02:39:00,
2013-06-20 21:44:00,78.8,61.8,30.34,North,0,0.0,0.0,56,0.00,,,0.00,WUHU216HW,2013-06-21 02:44:00,
2013-06-20 21:49:00,78.8,62.4,30.34,North,0,0.0,0.0,57,0.00,,,0.00,WUHU216HW,2013-06-21 02:49:00,
2013-06-20 21:54:00,78.7,62.2,30.34,North,0,0.0,0.0,57,0.00,,,0.00,WUHU216HW,2013-06-21 02:54:00,
2013-06-20 21:59:00,78.5,62.0,30.34,North,0,0.0,0.0,57,0.00,,,0.00,WUHU216HW,2013-06-21 02:59:00,
2013-06-20 22:04:00,78.3,61.8,30.34,North,0,0.0,0.0,57,0.00,,,0.00,WUHU216HW,2013-06-21 03:04:00,
2013-06-20 22:09:00,78.3,62.4,30.34,North,0,0.0,0.0,58,0.00,,,0.00,WUHU216HW,2013-06-21 03:09:00,
2013-06-20 22:14:00,78.1,62.2,30.34,North,0,0.0,0.0,58,0.00,,,0.00,WUHU216HW,2013-06-21 03:14:00,
2013-06-20 22:19:00,78.1,62.6,30.34,North,0,0.0,0.0,59,0.00,,,0.00,WUHU216HW,2013-06-21 03:19:00,
2013-06-20 22:24:00,78.1,62.6,30.34,North,0,0.0,0.0,59,0.00,,,0.00,WUHU216HW,2013-06-21 03:24:00,
2013-06-20 22:29:00,77.9,62.5,30.34,North,0,0.0,0.0,59,0.00,,,0.00,WUHU216HW,2013-06-21 03:29:00,
2013-06-20 22:34:00,77.9,62.5,30.34,North,0,0.0,0.0,59,0.00,,,0.00,WUHU216HW,2013-06-21 03:34:00,
2013-06-20 22:39:00,77.9,63.0,30.34,North,0,0.0,0.0,60,0.00,,,0.00,WUHU216HW,2013-06-21 03:39:00,
2013-06-20 22:44:00,77.9,63.0,30.34,North,0,0.0,0.0,60,0.00,,,0.00,WUHU216HW,2013-06-21 03:44:00,
2013-06-20 22:49:00,77.8,62.8,30.34,North,0,0.0,0.0,60,0.00,,,0.00,WUHU216HW,2013-06-21 03:49:00,
2013-06-20 22:54:00,77.6,63.1,30.34,North,0,0.0,0.0,61,0.00,,,0.00,WUHU216HW,2013-06-21 03:54:00,
2013-06-20 22:59:00,77.4,62.9,30.34,North,0,0.0,0.0,61,0.00,,,0.00,WUHU216HW,2013-06-21 03:59:00,
2013-06-20 23:01:00,77.4,62.9,30.34,North,0,0.0,0.0,61,0.00,,,0.00,WUHU216HW,2013-06-21 04:01:00,
2013-06-20 23:06:00,77.2,62.7,30.34,North,0,0.0,0.0,61,0.00,,,0.00,WUHU216HW,2013-06-21 04:06:00,
2013-06-20 23:11:00,77.0,63.0,30.34,North,0,0.0,0.0,62,0.00,,,0.00,WUHU216HW,2013-06-21 04:11:00,
2013-06-20 23:16:00,76.9,62.8,30.34,North,0,0.0,0.0,62,0.00,,,0.00,WUHU216HW,2013-06-21 04:16:00,
2013-06-20 23:21:00,77.0,63.0,30.34,North,0,0.0,0.0,62,0.00,,,0.00,WUHU216HW,2013-06-21 04:21:00,
2013-06-20 23:26:00,77.0,63.0,30.34,North,0,0.0,0.0,62,0.00,,,0.00,WUHU216HW,2013-06-21 04:26:00,
2013-06-20 23:31:00,76.9,62.8,30.34,North,0,0.0,0.0,62,0.00,,,0.00,WUHU216HW,2013-06-21 04:31:00,
2013-06-20 23:36:00,76.7,62.6,30.35,North,0,0.0,0.0,62,0.00,,,0.00,WUHU216HW,2013-06-21 04:36:00,
2013-06-20 23:41:00,76.7,62.6,30.35,North,0,0.0,0.0,62,0.00,,,0.00,WUHU216HW,2013-06-21 04:41:00,
2013-06-20 23:46:00,76.7,62.6,30.35,North,0,0.0,0.0,62,0.00,,,0.00,WUHU216HW,2013-06-21 04:46:00,
2013-06-20 23:51:00,76.5,62.5,30.35,North,0,0.0,0.0,62,0.00,,,0.00,WUHU216HW,2013-06-21 04:51:00,
2013-06-20 23:56:00,76.3,62.8,30.35,North,0,0.0,0.0,63,0.00,,,0.00,WUHU216HW,2013-06-21 04:56:00,